Time,TemperatureF,DewpointF,PressureIn,WindDirection,WindDirectionDegrees,WindSpeedMPH,WindSpeedGustMPH,Humidity,HourlyPrecipIn,Conditions,Clouds,dailyrainin,SoftwareType,DateUTC
2013-07-03 00:04:00,71.2,54.2,29.97,East,80,0.0,0.0,55,0.00,,,0.00,WeatherTracker,2013-07-03 05:04:00,
2013-07-03 00:07:00,71.3,54.3,29.98,East,80,0.0,0.0,55,0.00,,,0.00,WeatherTracker,2013-07-03 05:07:00,
2013-07-03 00:12:00,71.3,54.3,29.98,East,79,0.0,0.0,55,0.00,,,0.00,WeatherTracker,2013-07-03 05:12:00,
2013-07-03 00:17:00,71.1,54.1,29.98,East,82,0.0,0.0,55,0.00,,,0.00,WeatherTracker,2013-07-03 05:17:00,
2013-07-03 00:19:00,71.1,54.1,29.98,East,79,0.0,0.0,55,0.00,,,0.00,WeatherTracker,2013-07-03 05:19:00,
2013-07-03 00:24:00,71.0,54.0,29.98,ENE,77,0.0,0.0,55,0.00,,,0.00,WeatherTracker,2013-07-03 05:24:00,
2013-07-03 00:29:00,70.9,53.9,29.98,East,82,0.0,0.0,55,0.00,,,0.00,WeatherTracker,2013-07-03 05:29:00,
2013-07-03 00:34:00,70.7,54.2,29.98,ENE,66,0.0,0.0,56,0.00,,,0.00,WeatherTracker,2013-07-03 05:34:00,
2013-07-03 00:39:00,70.6,54.1,29.97,ENE,68,0.0,0.0,56,0.00,,,0.00,WeatherTracker,2013-07-03 05:39:00,
2013-07-03 00:44:00,70.3,53.8,29.97,ENE,68,0.0,0.0,56,0.00,,,0.00,WeatherTracker,2013-07-03 05:44:00,
2013-07-03 00:49:00,70.2,54.2,29.97,ENE,69,0.0,0.0,57,0.00,,,0.00,WeatherTracker,2013-07-03 05:49:00,
2013-07-03 00:54:00,69.8,53.9,29.97,ENE,70,0.0,0.0,57,0.00,,,0.00,WeatherTracker,2013-07-03 05:54:00,
2013-07-03 00:57:00,69.6,53.7,29.97,ENE,70,0.0,0.0,57,0.00,,,0.00,WeatherTracker,2013-07-03 05:57:00,
2013-07-03 00:58:00,69.5,53.6,29.98,ENE,69,0.0,0.0,57,0.00,,,0.00,WeatherTracker,2013-07-03 05:58:00,
2013-07-03 01:03:00,69.2,53.8,29.97,ENE,70,0.0,0.0,58,0.00,,,0.00,WeatherTracker,2013-07-03 06:03:00,
2013-07-03 01:08:00,69.0,54.5,29.98,ENE,68,0.0,0.0,60,0.00,,,0.00,WeatherTracker,2013-07-03 06:08:00,
2013-07-03 01:13:00,68.7,54.2,29.98,ENE,68,0.0,0.0,60,0.00,,,0.00,WeatherTracker,2013-07-03 06:13:00,
2013-07-03 01:16:00,68.5,54.1,29.98,East,87,0.0,0.0,60,0.00,,,0.00,WeatherTracker,2013-07-03 06:16:00,
2013-07-03 01:19:00,68.5,53.6,29.98,ENE,63,0.0,1.0,59,0.00,,,0.00,WeatherTracker,2013-07-03 06:19:00,
2013-07-03 01:22:00,68.8,53.4,29.98,East,80,0.0,1.0,58,0.00,,,0.00,WeatherTracker,2013-07-03 06:22:00,
2013-07-03 01:24:00,69.0,53.6,29.98,ENE,73,0.0,1.0,58,0.00,,,0.00,WeatherTracker,2013-07-03 06:24:00,
2013-07-03 01:26:00,69.1,53.7,29.98,ENE,75,0.0,1.0,58,0.00,,,0.00,WeatherTracker,2013-07-03 06:26:00,
2013-07-03 01:31:00,68.9,53.5,29.98,ENE,77,0.0,1.0,58,0.00,,,0.00,WeatherTracker,2013-07-03 06:31:00,
2013-07-03 01:32:00,68.9,53.5,29.98,ENE,73,0.0,1.0,58,0.00,,,0.00,WeatherTracker,2013-07-03 06:32:00,
2013-07-03 01:37:00,68.8,53.4,29.97,East,80,0.0,1.0,58,0.00,,,0.00,WeatherTracker,2013-07-03 06:37:00,
2013-07-03 01:42:00,68.8,53.4,29.98,East,80,0.0,1.0,58,0.00,,,0.00,WeatherTracker,2013-07-03 06:42:00,
2013-07-03 01:43:00,68.8,53.4,29.98,East,80,0.0,1.0,58,0.00,,,0.00,WeatherTracker,2013-07-03 06:43:00,
2013-07-03 01:48:00,68.7,53.3,29.98,East,80,0.0,0.0,58,0.00,,,0.00,WeatherTracker,2013-07-03 06:48:00,
2013-07-03 01:53:00,68.4,53.5,29.97,East,80,0.0,0.0,59,0.00,,,0.00,WeatherTracker,2013-07-03 06:53:00,
2013-07-03 01:55:00,68.3,53.9,29.97,East,80,0.0,0.0,60,0.00,,,0.00,WeatherTracker,2013-07-03 06:55:00,
2013-07-03 02:00:00,68.0,54.9,29.97,East,80,0.0,0.0,63,0.00,,,0.00,WeatherTracker,2013-07-03 07:00:00,
2013-07-03 02:05:00,67.5,54.5,29.97,East,80,0.0,0.0,63,0.00,,,0.00,WeatherTracker,2013-07-03 07:05:00,
2013-07-03 02:10:00,67.1,54.5,29.98,East,81,0.0,0.0,64,0.00,,,0.00,WeatherTracker,2013-07-03 07:10:00,
2013-07-03 02:15:00,66.9,53.9,29.98,East,81,0.0,1.0,63,0.00,,,0.00,WeatherTracker,2013-07-03 07:15:00,
2013-07-03 02:18:00,67.1,53.6,29.98,East,80,0.0,1.0,62,0.00,,,0.00,WeatherTracker,2013-07-03 07:18:00,
2013-07-03 02:23:00,67.3,53.4,29.98,East,79,0.0,1.0,61,0.00,,,0.00,WeatherTracker,2013-07-03 07:23:00,
2013-07-03 02:28:00,67.5,53.6,29.98,East,80,0.0,1.0,61,0.00,,,0.00,WeatherTracker,2013-07-03 07:28:00,
2013-07-03 02:33:00,67.6,53.7,29.98,East,82,0.0,1.0,61,0.00,,,0.00,WeatherTracker,2013-07-03 07:33:00,
2013-07-03 02:38:00,67.6,54.5,29.98,East,82,0.0,0.0,63,0.00,,,0.00,WeatherTracker,2013-07-03 07:38:00,
2013-07-03 02:43:00,67.4,53.5,29.98,East,82,0.0,1.0,61,0.00,,,0.00,WeatherTracker,2013-07-03 07:43:00,
2013-07-03 02:48:00,67.2,54.2,29.97,East,82,0.0,1.0,63,0.00,,,0.00,WeatherTracker,2013-07-03 07:48:00,
2013-07-03 02:50:00,67.1,54.5,29.98,East,82,0.0,0.0,64,0.00,,,0.00,WeatherTracker,2013-07-03 07:50:00,
2013-07-03 02:55:00,66.7,55.0,29.98,East,82,0.0,0.0,66,0.00,,,0.00,WeatherTracker,2013-07-03 07:55:00,
2013-07-03 03:00:00,66.1,54.4,29.97,East,82,0.0,0.0,66,0.00,,,0.00,WeatherTracker,2013-07-03 08:00:00,
2013-07-03 03:01:00,66.0,54.3,29.97,ENE,70,0.0,0.0,66,0.00,,,0.00,WeatherTracker,2013-07-03 08:01:00,
2013-07-03 03:06:00,65.7,53.2,29.97,ENE,70,0.0,0.0,64,0.00,,,0.00,WeatherTracker,2013-07-03 08:06:00,
2013-07-03 03:09:00,65.7,53.2,29.97,ENE,71,0.0,0.0,64,0.00,,,0.00,WeatherTracker,2013-07-03 08:09:00,
2013-07-03 03:14:00,65.8,53.3,29.97,ENE,70,0.0,0.0,64,0.00,,,0.00,WeatherTracker,2013-07-03 08:14:00,
2013-07-03 03:18:00,65.9,52.5,29.97,ENE,72,0.0,0.0,62,0.00,,,0.00,WeatherTracker,2013-07-03 08:18:00,
2013-07-03 03:23:00,66.1,53.1,29.97,ENE,72,0.0,0.0,63,0.00,,,0.00,WeatherTracker,2013-07-03 08:23:00,
2013-07-03 03:28:00,66.1,53.6,29.96,ENE,72,0.0,0.0,64,0.00,,,0.00,WeatherTracker,2013-07-03 08:28:00,
2013-07-03 03:33:00,66.3,53.3,29.96,ENE,71,0.0,0.0,63,0.00,,,0.00,WeatherTracker,2013-07-03 08:33:00,
2013-07-03 03:39:00,66.3,52.4,29.96,ENE,77,0.0,1.0,61,0.00,,,0.00,WeatherTracker,2013-07-03 08:39:00,
2013-07-03 03:44:00,66.4,53.0,29.96,East,86,0.0,1.0,62,0.00,,,0.00,WeatherTracker,2013-07-03 08:44:00,
2013-07-03 03:45:00,66.4,53.0,29.96,East,86,0.0,1.0,62,0.00,,,0.00,WeatherTracker,2013-07-03 08:45:00,
2013-07-03 03:50:00,67.0,52.6,29.96,East,96,0.0,1.0,60,0.00,,,0.00,WeatherTracker,2013-07-03 08:50:00,
2013-07-03 03:55:00,67.6,51.8,29.96,ENE,76,1.0,1.0,57,0.00,,,0.00,WeatherTracker,2013-07-03 08:55:00,
2013-07-03 04:00:00,68.0,53.6,29.97,ENE,73,0.0,1.0,60,0.00,,,0.00,WeatherTracker,2013-07-03 09:00:00,
2013-07-03 04:05:00,67.6,53.2,29.96,ENE,74,0.0,1.0,60,0.00,,,0.00,WeatherTracker,2013-07-03 09:05:00,
2013-07-03 04:10:00,67.1,53.2,29.96,ENE,74,0.0,0.0,61,0.00,,,0.00,WeatherTracker,2013-07-03 09:10:00,
2013-07-03 04:15:00,66.8,52.5,29.97,ENE,73,0.0,0.0,60,0.00,,,0.00,WeatherTracker,2013-07-03 09:15:00,
2013-07-03 04:20:00,66.6,53.2,29.97,ENE,73,0.0,0.0,62,0.00,,,0.00,WeatherTracker,2013-07-03 09:20:00,
2013-07-03 04:25:00,66.3,53.3,29.97,ENE,73,0.0,0.0,63,0.00,,,0.00,WeatherTracker,2013-07-03 09:25:00,
2013-07-03 04:30:00,66.1,52.3,29.97,ENE,73,0.0,1.0,61,0.00,,,0.00,WeatherTracker,2013-07-03 09:30:00,
2013-07-03 04:35:00,66.1,52.3,29.96,ENE,73,0.0,1.0,61,0.00,,,0.00,WeatherTracker,2013-07-03 09:35:00,
2013-07-03 04:40:00,66.0,52.6,29.96,ENE,73,0.0,1.0,62,0.00,,,0.00,WeatherTracker,2013-07-03 09:40:00,
2013-07-03 04:41:00,65.9,52.9,29.96,ENE,74,0.0,1.0,63,0.00,,,0.00,WeatherTracker,2013-07-03 09:41:00,
2013-07-03 04:46:00,65.8,52.8,29.96,ENE,76,0.0,0.0,63,0.00,,,0.00,WeatherTracker,2013-07-03 09:46:00,
2013-07-03 04:49:00,65.6,53.1,29.96,ENE,76,0.0,0.0,64,0.00,,,0.00,WeatherTracker,2013-07-03 09:49:00,
2013-07-03 04:50:00,65.6,53.5,29.96,ENE,77,0.0,0.0,65,0.00,,,0.00,WeatherTracker,2013-07-03 09:50:00,
2013-07-03 04:55:00,65.6,53.1,29.96,ENE,77,0.0,0.0,64,0.00,,,0.00,WeatherTracker,2013-07-03 09:55:00,
2013-07-03 05:00:00,65.6,53.1,29.96,ENE,77,0.0,0.0,64,0.00,,,0.00,WeatherTracker,2013-07-03 10:00:00,
2013-07-03 05:04:00,65.6,53.1,29.96,ENE,76,0.0,0.0,64,0.00,,,0.00,WeatherTracker,2013-07-03 10:04:00,
2013-07-03 05:05:00,65.5,53.0,29.96,ENE,77,0.0,0.0,64,0.00,,,0.00,WeatherTracker,2013-07-03 10:05:00,
2013-07-03 05:10:00,65.3,53.6,29.96,ENE,77,0.0,0.0,66,0.00,,,0.00,WeatherTracker,2013-07-03 10:10:00,
2013-07-03 05:15:00,65.0,53.4,29.96,ENE,76,0.0,0.0,66,0.00,,,0.00,WeatherTracker,2013-07-03 10:15:00,
2013-07-03 05:20:00,64.7,53.1,29.96,ENE,76,0.0,0.0,66,0.00,,,0.00,WeatherTracker,2013-07-03 10:20:00,
2013-07-03 05:25:00,64.3,53.1,29.96,ENE,77,0.0,0.0,67,0.00,,,0.00,WeatherTracker,2013-07-03 10:25:00,
2013-07-03 05:30:00,64.1,52.9,29.96,ENE,77,0.0,0.0,67,0.00,,,0.00,WeatherTracker,2013-07-03 10:30:00,
2013-07-03 05:31:00,64.1,52.9,29.96,ENE,77,0.0,0.0,67,0.00,,,0.00,WeatherTracker,2013-07-03 10:31:00,
2013-07-03 05:36:00,64.3,53.1,29.96,ENE,77,0.0,0.0,67,0.00,,,0.00,WeatherTracker,2013-07-03 10:36:00,
2013-07-03 05:41:00,64.5,53.3,29.96,ENE,76,0.0,0.0,67,0.00,,,0.00,WeatherTracker,2013-07-03 10:41:00,
2013-07-03 05:46:00,64.8,53.2,29.96,ENE,77,0.0,0.0,66,0.00,,,0.00,WeatherTracker,2013-07-03 10:46:00,
2013-07-03 05:50:00,65.0,54.2,29.96,ENE,77,0.0,0.0,68,0.00,,,0.00,WeatherTracker,2013-07-03 10:50:00,
2013-07-03 05:55:00,65.0,53.4,29.96,ENE,77,0.0,1.0,66,0.00,,,0.00,WeatherTracker,2013-07-03 10:55:00,
2013-07-03 05:57:00,65.1,53.5,29.96,ENE,77,0.0,1.0,66,0.00,,,0.00,WeatherTracker,2013-07-03 10:57:00,
2013-07-03 06:02:00,65.2,53.5,29.96,ENE,76,0.0,1.0,66,0.00,,,0.00,WeatherTracker,2013-07-03 11:02:00,
2013-07-03 06:07:00,65.5,53.4,29.96,ENE,75,0.0,0.0,65,0.00,,,0.00,WeatherTracker,2013-07-03 11:07:00,
2013-07-03 06:09:00,65.6,53.1,29.96,ENE,75,0.0,0.0,64,0.00,,,0.00,WeatherTracker,2013-07-03 11:09:00,
2013-07-03 06:14:00,65.7,53.2,29.96,ENE,75,0.0,0.0,64,0.00,,,0.00,WeatherTracker,2013-07-03 11:14:00,
2013-07-03 06:19:00,65.7,53.2,29.96,ENE,75,0.0,0.0,64,0.00,,,0.00,WeatherTracker,2013-07-03 11:19:00,
2013-07-03 06:23:00,65.9,52.9,29.96,ENE,72,0.0,0.0,63,0.00,,,0.00,WeatherTracker,2013-07-03 11:23:00,
2013-07-03 06:25:00,66.1,53.1,29.96,East,87,0.0,1.0,63,0.00,,,0.00,WeatherTracker,2013-07-03 11:25:00,
2013-07-03 06:30:00,66.4,53.0,29.96,ENE,71,0.0,2.0,62,0.00,,,0.00,WeatherTracker,2013-07-03 11:30:00,
2013-07-03 06:35:00,66.5,53.1,29.96,East,99,0.0,2.0,62,0.00,,,0.00,WeatherTracker,2013-07-03 11:35:00,
2013-07-03 06:40:00,66.6,52.7,29.96,East,86,0.0,1.0,61,0.00,,,0.00,WeatherTracker,2013-07-03 11:40:00,
2013-07-03 06:45:00,66.7,52.8,29.96,ENE,75,0.0,1.0,61,0.00,,,0.00,WeatherTracker,2013-07-03 11:45:00,
2013-07-03 06:46:00,66.7,52.8,29.96,ENE,67,0.0,1.0,61,0.00,,,0.00,WeatherTracker,2013-07-03 11:46:00,
2013-07-03 06:51:00,66.8,52.9,29.96,ENE,63,0.0,1.0,61,0.00,,,0.00,WeatherTracker,2013-07-03 11:51:00,
2013-07-03 06:56:00,67.1,52.7,29.96,ESE,108,0.0,2.0,60,0.00,,,0.00,WeatherTracker,2013-07-03 11:56:00,
2013-07-03 06:59:00,67.2,53.3,29.96,East,100,0.0,2.0,61,0.00,,,0.00,WeatherTracker,2013-07-03 11:59:00,
2013-07-03 07:02:00,67.1,53.2,29.95,ENE,72,0.0,2.0,61,0.00,,,0.00,WeatherTracker,2013-07-03 12:02:00,
2013-07-03 07:07:00,67.2,53.3,29.95,ENE,77,0.0,1.0,61,0.00,,,0.00,WeatherTracker,2013-07-03 12:07:00,
2013-07-03 07:12:00,67.3,53.4,29.96,East,80,0.0,1.0,61,0.00,,,0.00,WeatherTracker,2013-07-03 12:12:00,
2013-07-03 07:16:00,67.5,53.6,29.96,East,87,0.0,1.0,61,0.00,,,0.00,WeatherTracker,2013-07-03 12:16:00,
2013-07-03 07:20:00,67.6,53.7,29.96,East,96,0.0,1.0,61,0.00,,,0.00,WeatherTracker,2013-07-03 12:20:00,
2013-07-03 07:25:00,67.6,54.1,29.97,ENE,73,0.0,1.0,62,0.00,,,0.00,WeatherTracker,2013-07-03 12:25:00,
2013-07-03 07:31:00,67.6,54.1,29.97,East,90,0.0,1.0,62,0.00,,,0.00,WeatherTracker,2013-07-03 12:31:00,
2013-07-03 07:36:00,67.5,54.5,29.97,ENE,78,0.0,1.0,63,0.00,,,0.00,WeatherTracker,2013-07-03 12:36:00,
2013-07-03 07:41:00,67.5,54.9,29.97,ENE,73,0.0,1.0,64,0.00,,,0.00,WeatherTracker,2013-07-03 12:41:00,
2013-07-03 07:46:00,67.6,55.0,29.98,East,79,0.0,1.0,64,0.00,,,0.00,WeatherTracker,2013-07-03 12:46:00,
2013-07-03 07:51:00,67.7,55.1,29.98,East,79,0.0,1.0,64,0.00,,,0.00,WeatherTracker,2013-07-03 12:51:00,
2013-07-03 07:56:00,68.1,55.5,29.98,ENE,63,0.0,1.0,64,0.00,,,0.00,WeatherTracker,2013-07-03 12:56:00,
2013-07-03 08:01:00,68.5,55.8,29.98,East,80,0.0,1.0,64,0.00,,,0.00,WeatherTracker,2013-07-03 13:01:00,
2013-07-03 08:06:00,69.1,56.4,29.98,East,80,0.0,1.0,64,0.00,,,0.00,WeatherTracker,2013-07-03 13:06:00,
2013-07-03 08:11:00,69.7,56.5,29.98,ENE,72,0.0,1.0,63,0.00,,,0.00,WeatherTracker,2013-07-03 13:11:00,
2013-07-03 08:16:00,70.3,57.5,29.98,NE,44,0.0,1.0,64,0.00,,,0.00,WeatherTracker,2013-07-03 13:16:00,
2013-07-03 08:21:00,70.8,57.6,29.99,East,79,0.0,1.0,63,0.00,,,0.00,WeatherTracker,2013-07-03 13:21:00,
2013-07-03 08:25:00,71.1,57.4,29.99,ENE,69,0.0,1.0,62,0.00,,,0.00,WeatherTracker,2013-07-03 13:25:00,
2013-07-03 08:30:00,71.8,57.6,29.99,North,350,0.0,1.0,61,0.00,,,0.00,WeatherTracker,2013-07-03 13:30:00,
2013-07-03 08:35:00,72.5,58.3,29.99,NE,54,0.0,1.0,61,0.00,,,0.00,WeatherTracker,2013-07-03 13:35:00,
2013-07-03 08:37:00,72.7,58.0,29.99,NE,54,0.0,1.0,60,0.00,,,0.00,WeatherTracker,2013-07-03 13:37:00,
2013-07-03 08:42:00,73.5,58.3,29.99,ENE,73,0.0,1.0,59,0.00,,,0.00,WeatherTracker,2013-07-03 13:42:00,
2013-07-03 08:47:00,74.5,59.2,29.99,East,82,0.0,1.0,59,0.00,,,0.00,WeatherTracker,2013-07-03 13:47:00,
2013-07-03 08:52:00,75.1,60.2,29.99,East,82,0.0,1.0,60,0.00,,,0.00,WeatherTracker,2013-07-03 13:52:00,
2013-07-03 08:57:00,75.9,60.5,29.98,North,5,0.0,1.0,59,0.00,,,0.00,WeatherTracker,2013-07-03 13:57:00,
2013-07-03 09:02:00,77.3,59.9,29.99,NNW,343,0.0,3.0,55,0.00,,,0.00,WeatherTracker,2013-07-03 14:02:00,
2013-07-03 09:06:00,78.4,59.3,29.99,ENE,61,0.0,3.0,52,0.00,,,0.00,WeatherTracker,2013-07-03 14:06:00,
2013-07-03 09:09:00,79.0,59.3,29.99,ENE,75,0.0,1.0,51,0.00,,,0.00,WeatherTracker,2013-07-03 14:09:00,
2013-07-03 09:14:00,80.3,59.9,29.99,ENE,77,0.0,1.0,50,0.00,,,0.00,WeatherTracker,2013-07-03 14:14:00,
2013-07-03 09:17:00,81.1,61.2,29.99,ENE,76,0.0,1.0,51,0.00,,,0.00,WeatherTracker,2013-07-03 14:17:00,
2013-07-03 09:23:00,82.3,59.4,29.99,NNW,331,0.0,2.0,46,0.00,,,0.00,WeatherTracker,2013-07-03 14:23:00,
2013-07-03 09:28:00,83.0,59.4,29.99,North,11,0.0,2.0,45,0.00,,,0.00,WeatherTracker,2013-07-03 14:28:00,
2013-07-03 09:30:00,83.3,58.4,29.99,East,89,0.0,4.0,43,0.00,,,0.00,WeatherTracker,2013-07-03 14:30:00,
2013-07-03 09:35:00,83.6,58.0,29.99,NE,53,0.0,4.0,42,0.00,,,0.00,WeatherTracker,2013-07-03 14:35:00,
2013-07-03 09:39:00,83.9,57.6,29.99,ENE,72,0.0,4.0,41,0.00,,,0.00,WeatherTracker,2013-07-03 14:39:00,
2013-07-03 09:41:00,84.1,57.8,29.99,NE,56,0.0,4.0,41,0.00,,,0.00,WeatherTracker,2013-07-03 14:41:00,
2013-07-03 09:46:00,84.7,58.4,29.99,ENE,67,1.0,2.0,41,0.00,,,0.00,WeatherTracker,2013-07-03 14:46:00,
2013-07-03 09:51:00,85.3,57.5,29.99,ENE,65,2.0,4.0,39,0.00,,,0.00,WeatherTracker,2013-07-03 14:51:00,
2013-07-03 09:57:00,85.2,58.1,29.99,ESE,110,0.0,6.0,40,0.00,,,0.00,WeatherTracker,2013-07-03 14:57:00,
2013-07-03 09:58:00,85.4,57.6,29.99,ESE,104,0.0,6.0,39,0.00,,,0.00,WeatherTracker,2013-07-03 14:58:00,
2013-07-03 10:03:00,86.0,57.4,29.99,ENE,78,1.0,5.0,38,0.00,,,0.00,WeatherTracker,2013-07-03 15:03:00,
2013-07-03 10:08:00,86.5,58.6,29.99,ENE,61,2.0,3.0,39,0.00,,,0.00,WeatherTracker,2013-07-03 15:08:00,
2013-07-03 10:13:00,86.6,57.9,29.99,ENE,70,1.0,5.0,38,0.00,,,0.00,WeatherTracker,2013-07-03 15:13:00,
2013-07-03 10:16:00,86.7,58.0,29.99,East,89,0.0,5.0,38,0.00,,,0.00,WeatherTracker,2013-07-03 15:16:00,
2013-07-03 10:21:00,87.0,56.8,29.99,East,100,1.0,5.0,36,0.00,,,0.00,WeatherTracker,2013-07-03 15:21:00,
2013-07-03 10:26:00,87.5,57.2,29.99,East,86,0.0,5.0,36,0.00,,,0.00,WeatherTracker,2013-07-03 15:26:00,
2013-07-03 10:28:00,87.5,56.4,29.99,ESE,103,2.0,5.0,35,0.00,,,0.00,WeatherTracker,2013-07-03 15:28:00,
2013-07-03 10:33:00,87.7,55.0,29.99,East,99,3.0,6.0,33,0.00,,,0.00,WeatherTracker,2013-07-03 15:33:00,
2013-07-03 10:38:00,88.0,55.2,29.99,East,80,1.0,6.0,33,0.00,,,0.00,WeatherTracker,2013-07-03 15:38:00,
2013-07-03 10:41:00,88.3,55.5,29.99,East,95,2.0,6.0,33,0.00,,,0.00,WeatherTracker,2013-07-03 15:41:00,
2013-07-03 10:46:00,88.3,54.7,29.99,NNW,341,0.0,8.0,32,0.00,,,0.00,WeatherTracker,2013-07-03 15:46:00,
2013-07-03 10:51:00,88.6,51.3,29.99,ENE,63,1.0,8.0,28,0.00,,,0.00,WeatherTracker,2013-07-03 15:51:00,
2013-07-03 10:52:00,88.6,52.2,29.98,NE,56,0.0,8.0,29,0.00,,,0.00,WeatherTracker,2013-07-03 15:52:00,
2013-07-03 10:57:00,88.8,51.5,29.99,East,96,1.0,4.0,28,0.00,,,0.00,WeatherTracker,2013-07-03 15:57:00,
2013-07-03 11:03:00,88.9,49.5,29.99,West,281,1.0,4.0,26,0.00,,,0.00,WeatherTracker,2013-07-03 16:03:00,
2013-07-03 11:08:00,89.0,52.6,29.99,WNW,298,0.0,4.0,29,0.00,,,0.00,WeatherTracker,2013-07-03 16:08:00,
2013-07-03 11:13:00,89.7,53.2,29.98,East,80,0.0,1.0,29,0.00,,,0.00,WeatherTracker,2013-07-03 16:13:00,
2013-07-03 11:18:00,90.1,53.5,29.98,East,88,3.0,3.0,29,0.00,,,0.00,WeatherTracker,2013-07-03 16:18:00,
2013-07-03 11:23:00,89.9,53.3,29.98,ENE,63,0.0,6.0,29,0.00,,,0.00,WeatherTracker,2013-07-03 16:23:00,
2013-07-03 11:28:00,90.2,52.6,29.98,NW,313,0.0,6.0,28,0.00,,,0.00,WeatherTracker,2013-07-03 16:28:00,
2013-07-03 11:33:00,90.0,53.4,29.98,NW,314,1.0,2.0,29,0.00,,,0.00,WeatherTracker,2013-07-03 16:33:00,
2013-07-03 11:38:00,89.5,51.1,29.98,NW,318,2.0,2.0,27,0.00,,,0.00,WeatherTracker,2013-07-03 16:38:00,
2013-07-03 11:43:00,88.8,53.3,29.98,SSE,155,0.0,4.0,30,0.00,,,0.00,WeatherTracker,2013-07-03 16:43:00,
2013-07-03 11:48:00,89.4,51.0,29.98,NE,49,0.0,4.0,27,0.00,,,0.00,WeatherTracker,2013-07-03 16:48:00,
2013-07-03 11:53:00,90.1,51.6,29.98,WSW,238,1.0,2.0,27,0.00,,,0.00,WeatherTracker,2013-07-03 16:53:00,
2013-07-03 11:58:00,90.4,49.7,29.98,SSW,204,0.0,4.0,25,0.00,,,0.00,WeatherTracker,2013-07-03 16:58:00,
2013-07-03 12:03:00,90.3,45.0,29.98,North,8,0.0,4.0,21,0.00,,,0.00,WeatherTracker,2013-07-03 17:03:00,
2013-07-03 12:08:00,91.1,51.4,29.97,NNE,19,1.0,4.0,26,0.00,,,0.00,WeatherTracker,2013-07-03 17:08:00,
2013-07-03 12:13:00,91.6,48.5,29.97,North,350,2.0,4.0,23,0.00,,,0.00,WeatherTracker,2013-07-03 17:13:00,
2013-07-03 12:18:00,91.9,51.0,29.97,West,267,0.0,4.0,25,0.00,,,0.00,WeatherTracker,2013-07-03 17:18:00,
2013-07-03 12:23:00,91.8,47.5,29.97,SSE,150,0.0,6.0,22,0.00,,,0.00,WeatherTracker,2013-07-03 17:23:00,
2013-07-03 12:29:00,91.7,46.2,29.97,NW,311,3.0,6.0,21,0.00,,,0.00,WeatherTracker,2013-07-03 17:29:00,
2013-07-03 12:34:00,91.6,47.3,29.96,NNW,334,0.0,6.0,22,0.00,,,0.00,WeatherTracker,2013-07-03 17:34:00,
2013-07-03 12:39:00,91.5,49.6,29.96,West,273,0.0,6.0,24,0.00,,,0.00,WeatherTracker,2013-07-03 17:39:00,
2013-07-03 12:44:00,91.5,48.4,29.96,NW,307,1.0,5.0,23,0.00,,,0.00,WeatherTracker,2013-07-03 17:44:00,
2013-07-03 12:49:00,91.8,46.3,29.96,North,350,2.0,5.0,21,0.00,,,0.00,WeatherTracker,2013-07-03 17:49:00,
2013-07-03 12:54:00,92.4,49.2,29.96,ESE,103,0.0,5.0,23,0.00,,,0.00,WeatherTracker,2013-07-03 17:54:00,
2013-07-03 12:59:00,93.2,44.8,29.96,WSW,245,0.0,2.0,19,0.00,,,0.00,WeatherTracker,2013-07-03 17:59:00,
2013-07-03 13:04:00,93.4,47.6,29.95,SW,214,0.0,4.0,21,0.00,,,0.00,WeatherTracker,2013-07-03 18:04:00,
2013-07-03 13:09:00,92.8,48.3,29.95,WNW,298,1.0,5.0,22,0.00,,,0.00,WeatherTracker,2013-07-03 18:09:00,
2013-07-03 13:14:00,92.7,49.4,29.95,SSW,194,0.0,5.0,23,0.00,,,0.00,WeatherTracker,2013-07-03 18:14:00,
2013-07-03 13:20:00,92.7,45.7,29.95,NW,316,0.0,4.0,20,0.00,,,0.00,WeatherTracker,2013-07-03 18:20:00,
2013-07-03 13:25:00,92.7,50.6,29.95,WSW,253,1.0,4.0,24,0.00,,,0.00,WeatherTracker,2013-07-03 18:25:00,
2013-07-03 13:30:00,92.7,49.4,29.95,West,277,0.0,4.0,23,0.00,,,0.00,WeatherTracker,2013-07-03 18:30:00,
2013-07-03 13:35:00,92.9,48.4,29.94,WSW,249,0.0,3.0,22,0.00,,,0.00,WeatherTracker,2013-07-03 18:35:00,
2013-07-03 13:40:00,93.1,48.6,29.94,NW,314,0.0,5.0,22,0.00,,,0.00,WeatherTracker,2013-07-03 18:40:00,
2013-07-03 13:45:00,93.4,48.8,29.94,WNW,293,1.0,5.0,22,0.00,,,0.00,WeatherTracker,2013-07-03 18:45:00,
2013-07-03 13:50:00,94.0,49.3,29.94,ESE,106,1.0,4.0,22,0.00,,,0.00,WeatherTracker,2013-07-03 18:50:00,
2013-07-03 13:55:00,94.0,49.3,29.93,West,281,0.0,4.0,22,0.00,,,0.00,WeatherTracker,2013-07-03 18:55:00,
2013-07-03 14:00:00,94.0,49.3,29.93,ENE,65,0.0,3.0,22,0.00,,,0.00,WeatherTracker,2013-07-03 19:00:00,
2013-07-03 14:05:00,93.8,45.3,29.93,WSW,254,1.0,3.0,19,0.00,,,0.00,WeatherTracker,2013-07-03 19:05:00,
2013-07-03 14:10:00,93.3,48.7,29.93,West,281,1.0,3.0,22,0.00,,,0.00,WeatherTracker,2013-07-03 19:10:00,
2013-07-03 14:15:00,93.2,47.4,29.93,SE,136,1.0,3.0,21,0.00,,,0.00,WeatherTracker,2013-07-03 19:15:00,
2013-07-03 14:20:00,94.2,46.9,29.93,NW,309,2.0,3.0,20,0.00,,,0.00,WeatherTracker,2013-07-03 19:20:00,
2013-07-03 14:25:00,94.5,45.8,29.93,ESE,120,0.0,4.0,19,0.00,,,0.00,WeatherTracker,2013-07-03 19:25:00,
2013-07-03 14:30:00,94.7,49.9,29.92,West,262,1.0,4.0,22,0.00,,,0.00,WeatherTracker,2013-07-03 19:30:00,
2013-07-03 14:35:00,95.3,50.4,29.92,West,266,0.0,2.0,22,0.00,,,0.00,WeatherTracker,2013-07-03 19:35:00,
2013-07-03 14:40:00,95.7,48.2,29.91,West,273,0.0,1.0,20,0.00,,,0.00,WeatherTracker,2013-07-03 19:40:00,
2013-07-03 14:46:00,95.4,51.7,29.91,West,259,0.0,1.0,23,0.00,,,0.00,WeatherTracker,2013-07-03 19:46:00,
2013-07-03 14:51:00,95.0,52.5,29.91,NW,307,1.0,1.0,24,0.00,,,0.00,WeatherTracker,2013-07-03 19:51:00,
2013-07-03 14:56:00,94.7,49.9,29.91,ENE,72,1.0,3.0,22,0.00,,,0.00,WeatherTracker,2013-07-03 19:56:00,
2013-07-03 15:01:00,94.3,47.0,29.91,NNW,346,1.0,3.0,20,0.00,,,0.00,WeatherTracker,2013-07-03 20:01:00,
2013-07-03 15:06:00,94.0,52.8,29.91,West,271,0.0,3.0,25,0.00,,,0.00,WeatherTracker,2013-07-03 20:06:00,
2013-07-03 15:11:00,94.0,48.1,29.91,NNE,20,3.0,7.0,21,0.00,,,0.00,WeatherTracker,2013-07-03 20:11:00,
2013-07-03 15:16:00,94.5,49.7,29.91,WNW,288,1.0,7.0,22,0.00,,,0.00,WeatherTracker,2013-07-03 20:16:00,
2013-07-03 15:21:00,93.7,47.8,29.90,South,174,1.0,4.0,21,0.00,,,0.00,WeatherTracker,2013-07-03 20:21:00,
2013-07-03 15:26:00,94.2,50.7,29.90,East,101,0.0,3.0,23,0.00,,,0.00,WeatherTracker,2013-07-03 20:26:00,
2013-07-03 15:31:00,95.7,50.7,29.90,WSW,246,0.0,3.0,22,0.00,,,0.00,WeatherTracker,2013-07-03 20:31:00,
2013-07-03 15:37:00,96.4,47.4,29.90,WNW,291,1.0,1.0,19,0.00,,,0.00,WeatherTracker,2013-07-03 20:37:00,
2013-07-03 15:42:00,95.2,46.4,29.89,WNW,295,0.0,2.0,19,0.00,,,0.00,WeatherTracker,2013-07-03 20:42:00,
2013-07-03 15:47:00,95.0,46.2,29.89,SE,143,1.0,4.0,19,0.00,,,0.00,WeatherTracker,2013-07-03 20:47:00,
2013-07-03 15:52:00,94.6,49.8,29.89,ENE,63,0.0,4.0,22,0.00,,,0.00,WeatherTracker,2013-07-03 20:52:00,
2013-07-03 15:57:00,94.2,49.5,29.89,NE,46,0.0,3.0,22,0.00,,,0.00,WeatherTracker,2013-07-03 20:57:00,
2013-07-03 16:02:00,94.7,47.3,29.89,South,177,1.0,3.0,20,0.00,,,0.00,WeatherTracker,2013-07-03 21:02:00,
2013-07-03 16:07:00,94.7,47.3,29.89,SE,131,0.0,4.0,20,0.00,,,0.00,WeatherTracker,2013-07-03 21:07:00,
2013-07-03 16:13:00,94.5,47.2,29.89,ENE,70,1.0,6.0,20,0.00,,,0.00,WeatherTracker,2013-07-03 21:13:00,
2013-07-03 16:18:00,95.0,46.2,29.88,SSE,154,0.0,3.0,19,0.00,,,0.00,WeatherTracker,2013-07-03 21:18:00,
2013-07-03 16:23:00,95.4,49.2,29.88,East,100,0.0,4.0,21,0.00,,,0.00,WeatherTracker,2013-07-03 21:23:00,
2013-07-03 16:28:00,96.3,47.3,29.88,WSW,243,0.0,4.0,19,0.00,,,0.00,WeatherTracker,2013-07-03 21:28:00,
2013-07-03 16:33:00,96.6,50.2,29.88,West,276,0.0,2.0,21,0.00,,,0.00,WeatherTracker,2013-07-03 21:33:00,
2013-07-03 16:38:00,96.0,49.7,29.88,NE,52,0.0,3.0,21,0.00,,,0.00,WeatherTracker,2013-07-03 21:38:00,
2013-07-03 16:43:00,96.0,48.4,29.88,ESE,110,3.0,3.0,20,0.00,,,0.00,WeatherTracker,2013-07-03 21:43:00,
2013-07-03 16:48:00,95.8,45.4,29.87,NE,39,0.0,4.0,18,0.00,,,0.00,WeatherTracker,2013-07-03 21:48:00,
2013-07-03 16:53:00,95.7,49.5,29.87,NNW,335,0.0,4.0,21,0.00,,,0.00,WeatherTracker,2013-07-03 21:53:00,
2013-07-03 16:58:00,95.8,45.4,29.87,NNE,18,0.0,3.0,18,0.00,,,0.00,WeatherTracker,2013-07-03 21:58:00,
2013-07-03 17:03:00,95.8,46.9,29.86,SE,142,0.0,3.0,19,0.00,,,0.00,WeatherTracker,2013-07-03 22:03:00,
2013-07-03 17:09:00,96.3,48.6,29.86,East,93,0.0,3.0,20,0.00,,,0.00,WeatherTracker,2013-07-03 22:09:00,
2013-07-03 17:14:00,96.1,49.8,29.86,West,278,0.0,4.0,21,0.00,,,0.00,WeatherTracker,2013-07-03 22:14:00,
2013-07-03 17:19:00,95.4,49.2,29.86,West,262,1.0,4.0,21,0.00,,,0.00,WeatherTracker,2013-07-03 22:19:00,
2013-07-03 17:24:00,95.0,53.6,29.86,NW,322,0.0,1.0,25,0.00,,,0.00,WeatherTracker,2013-07-03 22:24:00,
2013-07-03 17:29:00,94.7,51.1,29.86,NW,322,0.0,1.0,23,0.00,,,0.00,WeatherTracker,2013-07-03 22:29:00,
2013-07-03 17:34:00,95.2,51.5,29.86,NW,323,0.0,1.0,23,0.00,,,0.00,WeatherTracker,2013-07-03 22:34:00,
2013-07-03 17:39:00,95.4,49.2,29.85,NW,321,0.0,3.0,21,0.00,,,0.00,WeatherTracker,2013-07-03 22:39:00,
2013-07-03 17:44:00,95.5,49.3,29.85,WSW,240,0.0,3.0,21,0.00,,,0.00,WeatherTracker,2013-07-03 22:44:00,
2013-07-03 17:49:00,95.7,49.5,29.85,WSW,252,0.0,1.0,21,0.00,,,0.00,WeatherTracker,2013-07-03 22:49:00,
2013-07-03 17:54:00,95.7,46.8,29.85,South,188,0.0,1.0,19,0.00,,,0.00,WeatherTracker,2013-07-03 22:54:00,
2013-07-03 17:59:00,95.9,45.5,29.85,ESE,103,0.0,1.0,18,0.00,,,0.00,WeatherTracker,2013-07-03 22:59:00,
2013-07-03 18:04:00,95.9,47.0,29.84,East,92,0.0,1.0,19,0.00,,,0.00,WeatherTracker,2013-07-03 23:04:00,
2013-07-03 18:09:00,95.8,48.2,29.84,ENE,69,0.0,3.0,20,0.00,,,0.00,WeatherTracker,2013-07-03 23:09:00,
2013-07-03 18:14:00,95.1,49.0,29.84,East,85,0.0,3.0,21,0.00,,,0.00,WeatherTracker,2013-07-03 23:14:00,
2013-07-03 18:19:00,94.2,46.9,29.84,ENE,72,0.0,3.0,20,0.00,,,0.00,WeatherTracker,2013-07-03 23:19:00,
2013-07-03 18:24:00,94.1,45.5,29.84,ENE,68,1.0,3.0,19,0.00,,,0.00,WeatherTracker,2013-07-03 23:24:00,
2013-07-03 18:30:00,93.9,46.7,29.84,SE,129,0.0,3.0,20,0.00,,,0.00,WeatherTracker,2013-07-03 23:30:00,
2013-07-03 18:35:00,94.1,46.9,29.84,SE,128,0.0,1.0,20,0.00,,,0.00,WeatherTracker,2013-07-03 23:35:00,
2013-07-03 18:40:00,93.9,45.3,29.84,South,169,1.0,2.0,19,0.00,,,0.00,WeatherTracker,2013-07-03 23:40:00,
2013-07-03 18:45:00,93.4,47.6,29.84,East,86,0.0,2.0,21,0.00,,,0.00,WeatherTracker,2013-07-03 23:45:00,
2013-07-03 18:50:00,92.9,48.4,29.84,ESE,105,1.0,2.0,22,0.00,,,0.00,WeatherTracker,2013-07-03 23:50:00,
2013-07-03 18:55:00,91.9,48.8,29.84,WNW,285,0.0,1.0,23,0.00,,,0.00,WeatherTracker,2013-07-03 23:55:00,
2013-07-03 19:00:00,90.8,50.1,29.84,NW,316,0.0,1.0,25,0.00,,,0.00,WeatherTracker,2013-07-04 00:00:00,
2013-07-03 19:05:00,90.6,45.3,29.84,SE,142,0.0,2.0,21,0.00,,,0.00,WeatherTracker,2013-07-04 00:05:00,
2013-07-03 19:10:00,90.2,47.4,29.84,NW,323,0.0,2.0,23,0.00,,,0.00,WeatherTracker,2013-07-04 00:10:00,
2013-07-03 19:15:00,89.7,46.9,29.84,NW,324,0.0,1.0,23,0.00,,,0.00,WeatherTracker,2013-07-04 00:15:00,
2013-07-03 19:20:00,89.4,46.7,29.84,NW,325,0.0,0.0,23,0.00,,,0.00,WeatherTracker,2013-07-04 00:20:00,
2013-07-03 19:25:00,89.1,48.7,29.84,NW,325,0.0,0.0,25,0.00,,,0.00,WeatherTracker,2013-07-04 00:25:00,
2013-07-03 19:30:00,88.7,49.4,29.84,NW,324,0.0,0.0,26,0.00,,,0.00,WeatherTracker,2013-07-04 00:30:00,
2013-07-03 19:35:00,88.3,50.0,29.84,West,277,0.0,0.0,27,0.00,,,0.00,WeatherTracker,2013-07-04 00:35:00,
2013-07-03 19:41:00,87.5,50.3,29.84,NW,322,0.0,1.0,28,0.00,,,0.00,WeatherTracker,2013-07-04 00:41:00,
2013-07-03 19:46:00,87.2,49.1,29.84,NW,320,0.0,1.0,27,0.00,,,0.00,WeatherTracker,2013-07-04 00:46:00,
2013-07-03 19:51:00,87.1,49.0,29.84,NNE,12,0.0,0.0,27,0.00,,,0.00,WeatherTracker,2013-07-04 00:51:00,
2013-07-03 19:56:00,86.8,49.7,29.84,NNE,12,0.0,0.0,28,0.00,,,0.00,WeatherTracker,2013-07-04 00:56:00,
2013-07-03 20:01:00,86.4,50.3,29.85,North,11,0.0,0.0,29,0.00,,,0.00,WeatherTracker,2013-07-04 01:01:00,
2013-07-03 20:06:00,85.7,49.7,29.85,North,11,0.0,0.0,29,0.00,,,0.00,WeatherTracker,2013-07-04 01:06:00,
2013-07-03 20:11:00,85.1,49.2,29.84,North,10,0.0,0.0,29,0.00,,,0.00,WeatherTracker,2013-07-04 01:11:00,
2013-07-03 20:16:00,84.5,50.5,29.84,East,82,0.0,0.0,31,0.00,,,0.00,WeatherTracker,2013-07-04 01:16:00,
2013-07-03 20:21:00,84.4,49.5,29.84,East,82,0.0,1.0,30,0.00,,,0.00,WeatherTracker,2013-07-04 01:21:00,
2013-07-03 20:26:00,83.9,50.0,29.84,East,82,0.0,1.0,31,0.00,,,0.00,WeatherTracker,2013-07-04 01:26:00,
2013-07-03 20:31:00,83.4,52.1,29.84,East,82,0.0,0.0,34,0.00,,,0.00,WeatherTracker,2013-07-04 01:31:00,
2013-07-03 20:36:00,83.0,49.2,29.85,East,82,0.0,1.0,31,0.00,,,0.00,WeatherTracker,2013-07-04 01:36:00,
2013-07-03 20:41:00,82.6,50.6,29.85,East,82,0.0,1.0,33,0.00,,,0.00,WeatherTracker,2013-07-04 01:41:00,
2013-07-03 20:47:00,81.9,49.9,29.85,East,82,0.0,0.0,33,0.00,,,0.00,WeatherTracker,2013-07-04 01:47:00,
2013-07-03 20:52:00,81.2,50.1,29.85,East,82,0.0,0.0,34,0.00,,,0.00,WeatherTracker,2013-07-04 01:52:00,
2013-07-03 20:57:00,80.4,51.0,29.85,East,82,0.0,0.0,36,0.00,,,0.00,WeatherTracker,2013-07-04 01:57:00,
2013-07-03 21:02:00,79.7,51.1,29.85,East,82,0.0,0.0,37,0.00,,,0.00,WeatherTracker,2013-07-04 02:02:00,
2013-07-03 21:07:00,79.0,50.5,29.85,East,82,0.0,0.0,37,0.00,,,0.00,WeatherTracker,2013-07-04 02:07:00,
2013-07-03 21:12:00,78.5,50.0,29.85,East,82,0.0,0.0,37,0.00,,,0.00,WeatherTracker,2013-07-04 02:12:00,
2013-07-03 21:17:00,78.0,51.0,29.85,East,82,0.0,0.0,39,0.00,,,0.00,WeatherTracker,2013-07-04 02:17:00,
2013-07-03 21:22:00,77.6,51.3,29.85,East,82,0.0,0.0,40,0.00,,,0.00,WeatherTracker,2013-07-04 02:22:00,
2013-07-03 21:27:00,77.2,50.3,29.86,East,82,0.0,0.0,39,0.00,,,0.00,WeatherTracker,2013-07-04 02:27:00,
2013-07-03 21:32:00,76.9,49.3,29.86,East,82,0.0,0.0,38,0.00,,,0.00,WeatherTracker,2013-07-04 02:32:00,
2013-07-03 21:38:00,77.2,50.3,29.86,East,82,0.0,0.0,39,0.00,,,0.00,WeatherTracker,2013-07-04 02:38:00,
2013-07-03 21:43:00,77.3,51.7,29.86,East,82,0.0,0.0,41,0.00,,,0.00,WeatherTracker,2013-07-04 02:43:00,
2013-07-03 21:48:00,77.3,51.7,29.86,East,82,0.0,0.0,41,0.00,,,0.00,WeatherTracker,2013-07-04 02:48:00,
2013-07-03 21:53:00,76.9,52.0,29.86,East,82,0.0,0.0,42,0.00,,,0.00,WeatherTracker,2013-07-04 02:53:00,
2013-07-03 21:58:00,76.4,52.2,29.87,East,82,0.0,0.0,43,0.00,,,0.00,WeatherTracker,2013-07-04 02:58:00,
2013-07-03 22:03:00,76.1,52.0,29.87,East,82,0.0,0.0,43,0.00,,,0.00,WeatherTracker,2013-07-04 03:03:00,
2013-07-03 22:08:00,76.1,53.2,29.87,East,82,0.0,0.0,45,0.00,,,0.00,WeatherTracker,2013-07-04 03:08:00,
2013-07-03 22:13:00,77.9,52.3,29.87,ESE,108,2.0,4.0,41,0.00,,,0.00,WeatherTracker,2013-07-04 03:13:00,
2013-07-03 22:19:00,79.7,54.6,29.87,ESE,108,0.0,4.0,42,0.00,,,0.00,WeatherTracker,2013-07-04 03:19:00,
2013-07-03 22:24:00,80.2,55.6,29.88,NE,51,0.0,4.0,43,0.00,,,0.00,WeatherTracker,2013-07-04 03:24:00,
2013-07-03 22:29:00,80.4,58.3,29.88,ESE,116,0.0,4.0,47,0.00,,,0.00,WeatherTracker,2013-07-04 03:29:00,
2013-07-03 22:34:00,80.3,58.8,29.88,East,90,0.0,4.0,48,0.00,,,0.00,WeatherTracker,2013-07-04 03:34:00,
2013-07-03 22:39:00,80.1,60.3,29.88,East,89,1.0,3.0,51,0.00,,,0.00,WeatherTracker,2013-07-04 03:39:00,
2013-07-03 22:44:00,80.1,61.4,29.88,ESE,107,1.0,5.0,53,0.00,,,0.00,WeatherTracker,2013-07-04 03:44:00,
2013-07-03 22:49:00,79.9,62.3,29.88,East,86,1.0,5.0,55,0.00,,,0.00,WeatherTracker,2013-07-04 03:49:00,
2013-07-03 22:54:00,79.7,63.1,29.88,ESE,110,0.0,5.0,57,0.00,,,0.00,WeatherTracker,2013-07-04 03:54:00,
2013-07-03 22:59:00,79.6,63.5,29.88,ENE,61,0.0,8.0,58,0.00,,,0.00,WeatherTracker,2013-07-04 03:59:00,
2013-07-03 23:01:00,79.6,64.0,29.89,ESE,117,1.0,8.0,59,0.00,,,0.00,WeatherTracker,2013-07-04 04:01:00,
2013-07-03 23:06:00,79.4,63.8,29.88,East,89,2.0,8.0,59,0.00,,,0.00,WeatherTracker,2013-07-04 04:06:00,
2013-07-03 23:11:00,79.3,64.2,29.88,South,190,5.0,8.0,60,0.00,,,0.00,WeatherTracker,2013-07-04 04:11:00,
2013-07-03 23:17:00,79.1,64.5,29.88,ENE,58,0.0,8.0,61,0.00,,,0.00,WeatherTracker,2013-07-04 04:17:00,
2013-07-03 23:22:00,78.9,64.3,29.88,SSE,160,0.0,5.0,61,0.00,,,0.00,WeatherTracker,2013-07-04 04:22:00,
2013-07-03 23:27:00,78.6,64.5,29.89,SSE,150,0.0,5.0,62,0.00,,,0.00,WeatherTracker,2013-07-04 04:27:00,
2013-07-03 23:32:00,78.3,64.2,29.89,SSW,201,2.0,3.0,62,0.00,,,0.00,WeatherTracker,2013-07-04 04:32:00,
2013-07-03 23:37:00,77.9,64.3,29.89,SE,136,0.0,4.0,63,0.00,,,0.00,WeatherTracker,2013-07-04 04:37:00,
2013-07-03 23:42:00,77.7,64.5,29.89,ESE,108,0.0,4.0,64,0.00,,,0.00,WeatherTracker,2013-07-04 04:42:00,
2013-07-03 23:47:00,77.4,64.7,29.90,SE,132,0.0,1.0,65,0.00,,,0.00,WeatherTracker,2013-07-04 04:47:00,
2013-07-03 23:52:00,76.9,64.2,29.90,SE,133,0.0,1.0,65,0.00,,,0.00,WeatherTracker,2013-07-04 04:52:00,
2013-07-03 23:57:00,76.3,64.1,29.90,SE,132,0.0,0.0,66,0.00,,,0.00,WeatherTracker,2013-07-04 04:57:00,